Time;durP1;ratioP1;P1;durP2;ratioP2;P2;SDS_P1;SDS_P2;PMS_P1;PMS_P2;Temp;Humidity;BMP_temperature;BMP_pressure;BME280_temperature;BME280_humidity;BME280_pressure;Samples;Min_cycle;Max_cycle;Signal;HPM_P1;HPM_P2
2021/10/20 00:00:22;;;;;;;8.87;4.90;;;13.80;77.80;;;;;;5030508;28;20674;-75
2021/10/20 00:02:50;;;;;;;6.50;4.50;;;13.80;78.00;;;;;;5031535;28;20235;-75
2021/10/20 00:05:19;;;;;;;8.83;4.60;;;13.80;78.00;;;;;;5031631;28;20481;-74
2021/10/20 00:07:49;;;;;;;7.40;4.87;;;13.70;78.00;;;;;;5031367;28;20420;-72
2021/10/20 00:10:16;;;;;;;7.80;5.17;;;13.70;78.60;;;;;;5030221;28;20836;-75
2021/10/20 00:12:42;;;;;;;9.53;5.83;;;13.70;78.90;;;;;;5030932;28;20464;-74
2021/10/20 00:15:11;;;;;;;7.57;5.80;;;13.60;79.20;;;;;;5028779;28;20593;-74
2021/10/20 00:17:38;;;;;;;9.70;6.17;;;13.60;79.30;;;;;;5030998;28;20424;-75
2021/10/20 00:20:08;;;;;;;11.47;6.20;;;13.50;79.50;;;;;;5030048;28;20435;-75
2021/10/20 00:22:34;;;;;;;8.33;5.20;;;13.50;79.70;;;;;;5030240;28;21171;-74
2021/10/20 00:25:00;;;;;;;9.10;4.40;;;13.50;79.50;;;;;;5028225;28;20915;-75
2021/10/20 00:27:26;;;;;;;7.47;5.10;;;13.50;79.50;;;;;;5029188;28;20416;-74
2021/10/20 00:29:53;;;;;;;9.33;4.83;;;13.50;79.50;;;;;;5029866;28;20276;-75
2021/10/20 00:32:19;;;;;;;9.87;5.33;;;13.40;79.50;;;;;;5031180;28;20589;-74
2021/10/20 00:34:45;;;;;;;9.07;5.23;;;13.40;79.60;;;;;;5031676;28;20910;-74
2021/10/20 00:37:11;;;;;;;6.37;4.53;;;13.30;79.70;;;;;;5030184;28;20797;-75
2021/10/20 00:39:37;;;;;;;6.80;5.30;;;13.30;80.00;;;;;;5034027;28;20201;-75
2021/10/20 00:42:03;;;;;;;6.20;4.77;;;13.30;80.20;;;;;;5031776;28;20237;-74
2021/10/20 00:44:29;;;;;;;7.23;4.50;;;13.30;80.00;;;;;;5022807;28;20217;-74
2021/10/20 00:46:56;;;;;;;9.60;4.43;;;13.30;80.20;;;;;;5034644;28;20552;-75
2021/10/20 00:49:22;;;;;;;6.80;4.40;;;13.30;80.20;;;;;;5034233;28;20514;-75
2021/10/20 00:51:47;;;;;;;7.10;4.77;;;13.20;80.50;;;;;;5033310;28;21013;-73
2021/10/20 00:54:14;;;;;;;9.43;5.40;;;13.20;80.80;;;;;;5034557;28;20522;-73
2021/10/20 00:56:39;;;;;;;7.30;4.80;;;13.20;80.80;;;;;;5035627;28;20632;-75
2021/10/20 00:59:06;;;;;;;7.03;4.70;;;13.10;80.80;;;;;;5035645;28;20454;-74
2021/10/20 01:01:32;;;;;;;6.47;4.03;;;13.10;80.90;;;;;;5034510;28;20501;-74
2021/10/20 01:03:58;;;;;;;7.80;4.60;;;13.10;80.90;;;;;;5033742;28;20522;-75
2021/10/20 01:06:23;;;;;;;6.17;4.17;;;13.10;80.80;;;;;;5033751;28;20555;-74
2021/10/20 01:08:49;;;;;;;7.87;4.50;;;13.10;80.80;;;;;;5033409;28;20208;-74
2021/10/20 01:11:15;;;;;;;7.60;4.80;;;13.00;81.10;;;;;;5034069;28;20930;-74
2021/10/20 01:13:41;;;;;;;7.37;5.10;;;13.00;81.70;;;;;;5033744;28;20709;-74
2021/10/20 01:16:08;;;;;;;6.93;4.70;;;12.90;81.90;;;;;;5034089;28;20503;-74
2021/10/20 01:18:34;;;;;;;5.83;4.00;;;12.90;82.10;;;;;;5032328;28;20431;-75
2021/10/20 01:21:01;;;;;;;9.30;4.80;;;12.90;81.40;;;;;;5032361;28;20927;-73
2021/10/20 01:23:28;;;;;;;6.93;4.03;;;12.90;81.10;;;;;;5032617;28;20801;-74
2021/10/20 01:25:54;;;;;;;6.63;4.37;;;12.90;81.20;;;;;;5034893;28;20557;-74
2021/10/20 01:28:20;;;;;;;5.87;3.90;;;12.90;80.90;;;;;;5039116;28;20559;-76
2021/10/20 01:30:46;;;;;;;7.23;4.27;;;12.90;80.90;;;;;;5037169;28;20451;-74
2021/10/20 01:33:12;;;;;;;6.47;4.40;;;12.90;81.40;;;;;;5033171;28;20212;-76
2021/10/20 01:35:37;;;;;;;8.03;4.17;;;12.80;81.20;;;;;;5032767;28;20212;-76
2021/10/20 01:38:03;;;;;;;8.33;4.57;;;12.80;81.40;;;;;;5033802;28;20311;-76
2021/10/20 01:40:29;;;;;;;7.87;4.50;;;12.70;81.50;;;;;;5034389;28;20580;-74
2021/10/20 01:42:55;;;;;;;7.03;3.97;;;12.70;81.50;;;;;;5029452;28;20455;-74
2021/10/20 01:45:21;;;;;;;9.57;5.40;;;12.60;81.80;;;;;;5033749;28;20459;-74
2021/10/20 01:47:47;;;;;;;8.47;4.73;;;12.70;81.70;;;;;;5034942;28;20268;-75
2021/10/20 01:50:14;;;;;;;16.43;6.80;;;12.70;81.80;;;;;;5033592;28;20768;-74
2021/10/20 01:52:41;;;;;;;6.50;4.60;;;12.60;82.40;;;;;;5035240;28;20197;-75
2021/10/20 01:55:10;;;;;;;6.20;4.43;;;12.60;83.30;;;;;;5032768;28;20420;-75
2021/10/20 01:57:36;;;;;;;7.50;4.97;;;12.60;83.40;;;;;;5032925;28;20416;-73
2021/10/20 02:00:02;;;;;;;6.23;4.47;;;12.50;83.60;;;;;;5032870;28;20423;-74
2021/10/20 02:02:28;;;;;;;6.70;4.57;;;12.50;83.80;;;;;;5032187;28;20205;-74
2021/10/20 02:04:54;;;;;;;5.00;4.00;;;12.40;84.30;;;;;;5031125;28;20466;-74
2021/10/20 02:07:19;;;;;;;6.37;4.10;;;12.30;83.70;;;;;;5033005;28;20189;-75
2021/10/20 02:09:45;;;;;;;6.50;3.90;;;12.30;84.00;;;;;;5032683;28;20177;-74
2021/10/20 02:12:11;;;;;;;7.77;4.30;;;12.40;83.30;;;;;;5033148;28;20204;-74
2021/10/20 02:14:37;;;;;;;6.57;4.33;;;12.40;83.30;;;;;;5031856;28;20446;-76
2021/10/20 02:17:03;;;;;;;6.33;4.10;;;12.40;82.80;;;;;;5031613;28;20515;-73
2021/10/20 02:19:29;;;;;;;6.00;3.80;;;12.40;82.80;;;;;;5024514;28;20185;-74
2021/10/20 02:21:56;;;;;;;5.63;4.20;;;12.40;82.10;;;;;;5031350;28;20874;-74
2021/10/20 02:24:22;;;;;;;6.80;4.47;;;12.60;80.30;;;;;;5031066;28;20250;-76
2021/10/20 02:26:48;;;;;;;5.07;3.90;;;12.70;80.50;;;;;;5032657;28;20463;-75
2021/10/20 02:29:14;;;;;;;6.43;4.07;;;12.60;80.30;;;;;;5032583;28;20565;-75
2021/10/20 02:31:46;;;;;;;8.00;4.40;;;12.70;80.30;;;;;;5032217;28;20205;-75
2021/10/20 02:34:20;;;;;;;4.90;3.47;;;12.80;78.30;;;;;;5031673;28;20532;-75
2021/10/20 02:36:46;;;;;;;7.90;3.93;;;12.90;77.60;;;;;;5034340;28;20412;-74
2021/10/20 02:39:12;;;;;;;5.10;3.40;;;13.00;76.50;;;;;;5032048;28;20523;-74
2021/10/20 02:41:38;;;;;;;5.13;3.17;;;13.10;76.10;;;;;;5030960;28;20216;-74
2021/10/20 02:44:05;;;;;;;6.20;3.50;;;13.20;75.80;;;;;;5028330;28;20428;-75
2021/10/20 02:46:32;;;;;;;5.17;3.47;;;13.30;75.10;;;;;;5032281;28;20247;-74
2021/10/20 02:48:58;;;;;;;7.07;4.10;;;13.30;74.90;;;;;;5032328;28;20438;-74
2021/10/20 02:51:24;;;;;;;4.77;3.60;;;13.30;74.60;;;;;;5030462;28;20458;-75
2021/10/20 02:53:50;;;;;;;6.70;3.60;;;13.30;75.10;;;;;;5036354;28;20448;-75
2021/10/20 02:56:17;;;;;;;7.97;4.47;;;13.20;74.90;;;;;;5037171;28;20212;-75
2021/10/20 02:58:44;;;;;;;5.50;3.20;;;13.20;74.80;;;;;;5037308;28;20432;-76
2021/10/20 03:01:10;;;;;;;7.40;4.03;;;13.20;75.20;;;;;;5037289;28;20487;-75
2021/10/20 03:03:36;;;;;;;5.73;3.97;;;13.20;75.10;;;;;;5033818;28;20506;-75
2021/10/20 03:06:01;;;;;;;6.73;3.33;;;13.20;75.40;;;;;;5035962;28;20201;-73
2021/10/20 03:08:27;;;;;;;5.93;3.63;;;13.20;75.10;;;;;;5035549;28;20689;-74
2021/10/20 03:10:53;;;;;;;5.03;3.93;;;13.10;75.10;;;;;;5034643;28;20202;-75
2021/10/20 03:13:18;;;;;;;5.70;3.40;;;13.10;75.10;;;;;;5035295;28;20220;-74
2021/10/20 03:15:44;;;;;;;3.53;3.03;;;13.10;74.80;;;;;;5040261;28;20185;-74
2021/10/20 03:18:10;;;;;;;7.23;3.50;;;13.10;74.90;;;;;;5038537;28;20684;-75
2021/10/20 03:20:35;;;;;;;6.90;4.07;;;13.10;75.40;;;;;;5031910;28;20649;-75
2021/10/20 03:23:01;;;;;;;7.17;3.90;;;13.00;75.40;;;;;;5031772;28;20213;-75
2021/10/20 03:25:27;;;;;;;5.77;3.97;;;13.00;76.10;;;;;;5032112;28;20229;-75
2021/10/20 03:27:53;;;;;;;6.20;4.03;;;12.90;76.70;;;;;;5032451;28;20185;-74
2021/10/20 03:30:20;;;;;;;7.20;4.13;;;12.80;76.70;;;;;;5032086;28;20189;-75
2021/10/20 03:32:47;;;;;;;7.20;3.57;;;12.80;76.70;;;;;;5033862;28;20435;-73
2021/10/20 03:35:14;;;;;;;5.10;3.63;;;12.80;77.00;;;;;;5032477;28;20416;-76
2021/10/20 03:37:40;;;;;;;8.17;4.50;;;12.70;77.60;;;;;;5033917;28;20853;-74
2021/10/20 03:40:06;;;;;;;7.00;4.03;;;12.70;77.80;;;;;;5034026;28;20443;-73
2021/10/20 03:42:32;;;;;;;5.50;3.80;;;12.60;78.00;;;;;;5032208;28;20443;-76
2021/10/20 03:44:58;;;;;;;7.53;3.90;;;12.60;78.30;;;;;;5038228;28;20646;-73
2021/10/20 03:47:25;;;;;;;10.70;4.60;;;12.60;78.40;;;;;;5031256;28;20451;-76
2021/10/20 03:49:51;;;;;;;8.80;4.23;;;12.50;78.70;;;;;;5028267;28;20821;-73
2021/10/20 03:52:18;;;;;;;12.70;4.63;;;12.50;79.20;;;;;;5032360;28;20443;-75
2021/10/20 03:54:44;;;;;;;8.67;4.10;;;12.50;79.00;;;;;;5031183;28;20419;-75
2021/10/20 03:57:10;;;;;;;8.33;4.40;;;12.50;79.30;;;;;;5032354;28;20427;-75
2021/10/20 03:59:36;;;;;;;6.10;3.80;;;12.40;79.50;;;;;;5028957;28;20431;-74
2021/10/20 04:02:02;;;;;;;7.43;3.97;;;12.40;79.20;;;;;;5029892;28;20477;-76
2021/10/20 04:04:28;;;;;;;7.40;4.23;;;12.40;79.30;;;;;;5029341;28;20432;-75
2021/10/20 04:06:53;;;;;;;8.27;4.57;;;12.40;79.50;;;;;;5028578;28;21096;-75
2021/10/20 04:09:19;;;;;;;8.47;4.37;;;12.30;79.50;;;;;;5029333;28;20185;-74
2021/10/20 04:11:45;;;;;;;7.43;4.20;;;12.30;79.60;;;;;;5035162;28;20212;-73
2021/10/20 04:14:11;;;;;;;7.53;4.53;;;12.30;79.60;;;;;;5041980;28;20193;-74
2021/10/20 04:16:37;;;;;;;8.13;4.27;;;12.30;80.00;;;;;;5044384;28;20991;-74
2021/10/20 04:19:02;;;;;;;21.80;3.70;;;12.30;79.50;;;;;;5034928;28;20725;-74
2021/10/20 04:21:28;;;;;;;9.30;4.60;;;12.30;79.70;;;;;;5033496;28;20700;-74
2021/10/20 04:23:54;;;;;;;6.60;4.43;;;12.30;79.50;;;;;;5033401;28;20192;-73
2021/10/20 04:26:20;;;;;;;6.87;4.20;;;12.30;79.50;;;;;;5033612;28;20471;-75
2021/10/20 04:28:46;;;;;;;9.40;3.90;;;12.30;79.20;;;;;;5033108;28;20668;-73
2021/10/20 04:31:11;;;;;;;7.53;3.73;;;12.30;79.00;;;;;;5033519;28;20181;-74
2021/10/20 04:33:37;;;;;;;11.40;5.17;;;12.30;78.90;;;;;;5032643;28;20266;-75
2021/10/20 04:36:03;;;;;;;5.93;3.90;;;12.30;78.90;;;;;;5033687;28;20244;-74
2021/10/20 04:38:29;;;;;;;7.40;4.00;;;12.40;78.70;;;;;;5032831;28;20204;-75
2021/10/20 04:40:55;;;;;;;7.53;4.20;;;12.40;78.60;;;;;;5033336;28;20547;-74
2021/10/20 04:43:21;;;;;;;5.07;3.57;;;12.40;78.90;;;;;;5032969;28;20507;-74
2021/10/20 04:45:46;;;;;;;10.77;4.40;;;12.40;78.90;;;;;;5033475;28;20209;-76
2021/10/20 04:48:12;;;;;;;6.67;4.20;;;12.40;79.60;;;;;;5032892;28;20957;-74
2021/10/20 04:50:38;;;;;;;5.77;4.33;;;12.40;79.00;;;;;;5031574;28;20181;-74
2021/10/20 04:53:04;;;;;;;6.93;3.97;;;12.40;78.60;;;;;;5032987;28;20778;-75
2021/10/20 04:55:30;;;;;;;11.83;4.63;;;12.40;79.30;;;;;;5032959;28;20189;-75
2021/10/20 04:57:56;;;;;;;6.63;4.10;;;12.40;78.70;;;;;;5032870;28;20655;-73
2021/10/20 05:00:24;;;;;;;6.10;3.60;;;12.40;77.30;;;;;;5033371;28;20477;-75
2021/10/20 05:02:50;;;;;;;8.77;3.87;;;12.50;77.10;;;;;;5032025;28;20458;-76
2021/10/20 05:05:16;;;;;;;7.07;4.40;;;12.50;77.40;;;;;;5033544;28;20522;-74
2021/10/20 05:07:50;;;;;;;6.30;4.40;;;12.50;77.60;;;;;;5033352;28;20424;-75
2021/10/20 05:10:17;;;;;;;6.37;3.60;;;12.50;76.70;;;;;;5031594;28;20423;-74
2021/10/20 05:12:43;;;;;;;7.70;3.93;;;12.50;76.50;;;;;;5032897;28;20444;-75
2021/10/20 05:15:11;;;;;;;6.60;4.70;;;12.60;76.40;;;;;;5032574;28;20419;-75
2021/10/20 05:17:41;;;;;;;6.77;3.90;;;12.60;77.30;;;;;;5031303;28;20435;-74
2021/10/20 05:20:08;;;;;;;8.37;4.30;;;12.60;77.40;;;;;;5032070;28;20913;-73
2021/10/20 05:22:35;;;;;;;11.53;5.30;;;12.50;77.80;;;;;;5032203;28;20454;-75
2021/10/20 05:25:02;;;;;;;12.37;5.77;;;12.50;78.30;;;;;;5032436;28;20986;-75
2021/10/20 05:27:28;;;;;;;6.63;4.90;;;12.40;79.00;;;;;;5031474;28;20507;-74
2021/10/20 05:29:54;;;;;;;6.10;4.00;;;12.30;79.60;;;;;;5032321;28;20455;-75
2021/10/20 05:32:19;;;;;;;6.13;4.37;;;12.30;79.60;;;;;;5030942;28;20220;-73
2021/10/20 05:34:45;;;;;;;9.37;4.27;;;12.30;79.60;;;;;;5032340;28;21001;-73
2021/10/20 05:37:11;;;;;;;6.80;5.20;;;12.30;80.20;;;;;;5032540;28;20189;-75
2021/10/20 05:39:36;;;;;;;10.57;5.50;;;12.20;79.90;;;;;;5032257;28;20238;-76
2021/10/20 05:42:02;;;;;;;13.37;5.27;;;12.20;80.20;;;;;;5028177;28;20228;-74
2021/10/20 05:44:29;;;;;;;6.40;4.20;;;12.10;80.60;;;;;;5031946;28;20185;-75
2021/10/20 05:46:54;;;;;;;10.23;4.90;;;12.10;80.60;;;;;;5031168;28;20460;-73
2021/10/20 05:49:20;;;;;;;7.73;4.70;;;12.10;80.60;;;;;;5029843;28;20423;-74
2021/10/20 05:51:46;;;;;;;12.03;4.73;;;12.10;80.90;;;;;;5031907;28;20259;-74
2021/10/20 05:54:12;;;;;;;8.77;5.13;;;12.00;81.20;;;;;;5031812;28;20698;-76
2021/10/20 05:56:37;;;;;;;10.70;5.00;;;12.00;81.70;;;;;;5035704;28;20196;-74
2021/10/20 05:59:04;;;;;;;8.20;4.93;;;12.10;81.10;;;;;;5036847;28;20259;-75
2021/10/20 06:01:33;;;;;;;8.83;4.90;;;12.10;81.50;;;;;;5032383;28;20558;-74
2021/10/20 06:04:00;;;;;;;8.73;5.03;;;12.00;81.20;;;;;;5032028;28;20424;-75
2021/10/20 06:06:26;;;;;;;7.13;4.40;;;12.00;81.20;;;;;;5032123;28;20511;-74
2021/10/20 06:08:52;;;;;;;11.20;5.00;;;12.00;80.90;;;;;;5034274;28;20424;-74
2021/10/20 06:11:20;;;;;;;8.63;5.23;;;12.10;81.10;;;;;;5034770;28;20474;-75
2021/10/20 06:13:45;;;;;;;38.37;9.30;;;12.10;80.80;;;;;;5030378;28;20415;-74
2021/10/20 06:16:11;;;;;;;13.50;5.40;;;12.10;80.80;;;;;;5033644;28;20522;-76
2021/10/20 06:18:40;;;;;;;47.77;11.37;;;12.10;81.20;;;;;;5033307;28;20186;-74
2021/10/20 06:21:06;;;;;;;27.17;7.23;;;12.10;80.90;;;;;;5030268;28;20272;-75
2021/10/20 06:23:32;;;;;;;29.40;8.70;;;12.20;80.50;;;;;;5033572;28;20424;-76
2021/10/20 06:25:59;;;;;;;21.50;9.73;;;12.20;80.60;;;;;;5034655;28;20466;-74
2021/10/20 06:28:25;;;;;;;47.70;12.03;;;12.20;80.90;;;;;;5033029;28;20420;-75
2021/10/20 06:30:51;;;;;;;27.73;11.17;;;12.30;81.20;;;;;;5035897;28;20429;-74
2021/10/20 06:33:17;;;;;;;84.83;14.13;;;12.20;81.10;;;;;;5038723;28;20443;-74
2021/10/20 06:35:43;;;;;;;17.30;5.93;;;12.30;81.10;;;;;;5037340;28;20504;-74
2021/10/20 06:38:09;;;;;;;16.97;6.77;;;12.40;80.80;;;;;;5037254;28;20451;-74
2021/10/20 06:40:35;;;;;;;31.40;8.13;;;12.30;79.90;;;;;;5038856;28;20423;-74
2021/10/20 06:43:01;;;;;;;13.67;6.53;;;12.40;79.50;;;;;;5040544;28;20269;-74
2021/10/20 06:45:27;;;;;;;21.40;6.53;;;12.50;80.00;;;;;;5035633;28;20204;-75
2021/10/20 06:47:53;;;;;;;8.90;4.70;;;12.50;79.90;;;;;;5035552;28;20316;-75
2021/10/20 06:50:21;;;;;;;10.83;5.33;;;12.50;79.00;;;;;;5033385;28;20451;-74
2021/10/20 06:52:47;;;;;;;28.40;8.20;;;12.60;78.90;;;;;;5036671;28;20474;-74
2021/10/20 06:55:13;;;;;;;17.40;6.80;;;12.70;79.20;;;;;;5036027;28;20424;-74
2021/10/20 06:57:40;;;;;;;15.33;7.00;;;12.70;79.90;;;;;;5037992;28;20238;-75
2021/10/20 07:00:08;;;;;;;25.47;8.20;;;12.70;80.30;;;;;;5035797;28;20970;-73
2021/10/20 07:02:35;;;;;;;75.23;15.10;;;12.80;80.60;;;;;;5038440;28;20443;-75
2021/10/20 07:05:01;;;;;;;27.90;8.00;;;12.70;80.60;;;;;;5034928;28;20481;-74
2021/10/20 07:07:28;;;;;;;34.73;8.40;;;12.80;81.10;;;;;;5041540;28;20491;-78
2021/10/20 07:09:54;;;;;;;22.73;5.87;;;12.80;80.90;;;;;;5044118;28;20443;-77
2021/10/20 07:12:19;;;;;;;18.80;7.87;;;12.90;81.50;;;;;;5049595;28;20444;-78
2021/10/20 07:14:46;;;;;;;16.40;7.03;;;13.00;79.90;;;;;;5047856;28;20200;-78
2021/10/20 07:17:12;;;;;;;17.93;6.90;;;13.00;79.20;;;;;;5044062;28;20192;-77
2021/10/20 07:19:38;;;;;;;15.73;6.90;;;13.00;79.60;;;;;;5041829;28;20428;-77
2021/10/20 07:22:08;;;;;;;37.03;8.90;;;13.10;79.60;;;;;;5045105;28;20539;-77
2021/10/20 07:24:35;;;;;;;13.57;7.17;;;13.20;80.00;;;;;;5043818;28;20485;-77
2021/10/20 07:27:01;;;;;;;18.83;7.33;;;13.20;80.20;;;;;;5042256;28;20513;-76
2021/10/20 07:29:27;;;;;;;27.13;9.27;;;13.30;80.50;;;;;;5043437;28;20421;-74
2021/10/20 07:31:53;;;;;;;17.73;7.90;;;13.30;80.50;;;;;;5040016;28;20501;-75
2021/10/20 07:34:19;;;;;;;17.33;8.33;;;13.30;80.80;;;;;;5036248;28;20284;-75
2021/10/20 07:36:44;;;;;;;18.83;8.90;;;13.40;80.50;;;;;;5038242;28;20185;-74
2021/10/20 07:39:12;;;;;;;17.73;8.27;;;13.40;80.80;;;;;;5037190;28;20201;-75
2021/10/20 07:41:38;;;;;;;12.87;7.43;;;13.40;80.90;;;;;;5037088;28;20225;-75
2021/10/20 07:44:05;;;;;;;17.10;8.77;;;13.40;80.90;;;;;;5038569;28;20479;-73
2021/10/20 07:46:32;;;;;;;14.43;8.17;;;13.50;80.80;;;;;;5039136;28;20459;-75
2021/10/20 07:48:58;;;;;;;28.80;12.87;;;13.60;80.60;;;;;;5035870;28;20416;-74
2021/10/20 07:51:24;;;;;;;20.80;10.13;;;13.60;80.60;;;;;;5034715;28;20466;-75
2021/10/20 07:53:50;;;;;;;14.93;9.00;;;13.70;80.60;;;;;;5037140;28;20434;-74
2021/10/20 07:56:15;;;;;;;15.97;8.63;;;13.70;80.90;;;;;;5038383;28;20412;-74
2021/10/20 07:58:41;;;;;;;16.47;9.87;;;13.80;80.80;;;;;;5039719;28;20189;-74
2021/10/20 08:01:07;;;;;;;15.83;7.80;;;13.90;80.90;;;;;;5038423;28;20428;-74
2021/10/20 08:03:33;;;;;;;5.70;3.90;;;13.80;78.40;;;;;;5038799;28;20825;-73
2021/10/20 08:05:58;;;;;;;4.70;3.33;;;14.10;73.30;;;;;;5037631;28;20201;-75
2021/10/20 08:08:24;;;;;;;7.67;4.30;;;14.70;69.70;;;;;;5039568;28;20192;-74
2021/10/20 08:10:50;;;;;;;4.43;3.53;;;15.30;67.70;;;;;;5037189;28;20182;-75
2021/10/20 08:13:16;;;;;;;5.70;3.70;;;15.70;66.60;;;;;;5037261;28;20568;-75
2021/10/20 08:15:42;;;;;;;4.27;3.33;;;16.00;65.70;;;;;;5031524;28;20181;-75
2021/10/20 08:18:09;;;;;;;6.10;4.00;;;16.30;64.80;;;;;;5032947;28;20191;-75
2021/10/20 08:20:36;;;;;;;5.53;3.70;;;16.50;64.20;;;;;;5032605;28;20932;-73
2021/10/20 08:23:04;;;;;;;6.00;3.60;;;16.60;63.80;;;;;;5031428;28;20500;-74
2021/10/20 08:25:31;;;;;;;4.30;3.47;;;16.80;63.10;;;;;;5032308;28;20456;-73
2021/10/20 08:27:57;;;;;;;4.53;2.97;;;16.90;63.10;;;;;;5030731;28;20427;-74
2021/10/20 08:30:23;;;;;;;6.53;3.90;;;17.10;62.30;;;;;;5032604;28;20426;-73
2021/10/20 08:32:54;;;;;;;6.13;3.60;;;17.20;61.60;;;;;;5031662;28;20496;-74
2021/10/20 08:35:20;;;;;;;7.37;3.70;;;17.50;61.00;;;;;;5030478;28;20511;-75
2021/10/20 08:37:55;;;;;;;8.73;4.23;;;17.60;60.00;;;;;;5029353;28;20921;-75
2021/10/20 08:40:25;;;;;;;5.47;3.50;;;17.80;59.70;;;;;;5028564;28;20180;-74
2021/10/20 08:42:51;;;;;;;5.20;2.97;;;17.90;59.30;;;;;;5024723;28;20446;-75
2021/10/20 08:45:17;;;;;;;5.40;3.20;;;18.00;59.10;;;;;;5029803;28;20805;-76
2021/10/20 08:47:47;;;;;;;5.80;3.50;;;18.10;59.20;;;;;;5030156;28;20422;-75
2021/10/20 08:50:21;;;;;;;12.03;4.43;;;18.20;58.90;;;;;;5028315;28;20224;-76
2021/10/20 08:52:49;;;;;;;5.17;3.47;;;18.30;58.80;;;;;;5030364;28;20450;-75
2021/10/20 08:55:16;;;;;;;10.63;4.47;;;18.40;59.10;;;;;;5029819;28;20933;-74
2021/10/20 08:57:45;;;;;;;11.63;3.97;;;18.50;58.90;;;;;;5034556;28;20489;-76
2021/10/20 09:00:12;;;;;;;14.43;4.40;;;18.60;58.80;;;;;;5032331;28;20424;-75
2021/10/20 09:02:40;;;;;;;9.90;3.20;;;18.60;58.80;;;;;;5031093;28;20443;-74
2021/10/20 09:05:08;;;;;;;13.63;3.90;;;18.60;58.80;;;;;;5031259;28;20560;-75
2021/10/20 09:07:37;;;;;;;4.90;3.20;;;18.60;58.80;;;;;;5033421;28;20427;-76
2021/10/20 09:10:04;;;;;;;7.33;3.73;;;18.60;58.90;;;;;;5034891;28;20431;-78
2021/10/20 09:12:36;;;;;;;4.87;3.30;;;18.70;58.90;;;;;;5032296;28;20494;-76
2021/10/20 09:15:04;;;;;;;7.13;3.83;;;18.80;58.70;;;;;;5033658;28;20793;-76
2021/10/20 09:17:52;;;;;;;9.60;4.30;;;18.80;58.80;;;;;;5032459;28;20423;-76
2021/10/20 09:20:19;;;;;;;6.30;3.73;;;18.90;59.10;;;;;;5033234;28;20438;-75
2021/10/20 09:23:18;;;;;;;5.83;3.83;;;18.90;58.70;;;;;;5027856;28;20978;-75
2021/10/20 09:25:58;;;;;;;5.73;3.83;;;19.00;58.90;;;;;;5034427;28;20464;-74
2021/10/20 09:28:26;;;;;;;16.90;7.80;;;19.00;58.70;;;;;;5031998;28;20967;-76
2021/10/20 09:30:52;;;;;;;6.40;4.17;;;19.00;59.10;;;;;;5034404;28;20789;-76
2021/10/20 09:33:19;;;;;;;7.63;4.40;;;19.10;59.10;;;;;;5032701;28;20538;-76
2021/10/20 09:35:45;;;;;;;6.30;3.40;;;19.10;59.30;;;;;;5028810;28;20506;-75
2021/10/20 09:38:12;;;;;;;5.70;4.03;;;19.10;59.50;;;;;;5037188;28;20437;-75
2021/10/20 09:40:44;;;;;;;5.20;4.00;;;19.20;59.50;;;;;;5043297;28;20424;-74
2021/10/20 09:43:12;;;;;;;5.10;3.57;;;19.20;59.60;;;;;;5040506;28;20439;-74
2021/10/20 09:45:41;;;;;;;7.43;3.53;;;19.10;59.70;;;;;;5033008;28;20461;-75
2021/10/20 09:48:22;;;;;;;16.00;4.17;;;19.20;59.70;;;;;;5033830;28;20424;-76
2021/10/20 09:51:08;;;;;;;7.40;4.73;;;19.30;59.60;;;;;;5032507;28;20437;-75
2021/10/20 09:53:37;;;;;;;9.83;4.20;;;19.40;59.60;;;;;;5032590;28;20568;-75
2021/10/20 09:56:25;;;;;;;16.80;4.30;;;19.60;59.20;;;;;;5034293;28;20481;-75
2021/10/20 09:58:52;;;;;;;5.87;3.20;;;19.70;58.40;;;;;;5023739;28;20440;-75
2021/10/20 10:01:20;;;;;;;6.10;3.90;;;19.80;58.40;;;;;;5034180;28;20423;-77
2021/10/20 10:03:47;;;;;;;6.23;3.30;;;20.00;58.10;;;;;;5036192;28;20423;-76
2021/10/20 10:06:13;;;;;;;6.30;3.70;;;20.10;57.60;;;;;;5037635;28;21011;-76
2021/10/20 10:08:40;;;;;;;4.20;3.27;;;20.20;57.80;;;;;;5038723;28;20416;-77
2021/10/20 10:11:05;;;;;;;8.07;3.30;;;20.20;57.40;;;;;;5038121;28;20432;-75
2021/10/20 10:13:35;;;;;;;8.43;3.70;;;20.30;57.40;;;;;;5036215;28;20427;-75
2021/10/20 10:16:03;;;;;;;6.03;3.30;;;20.40;57.00;;;;;;5034085;28;20185;-76
2021/10/20 10:18:29;;;;;;;8.30;3.70;;;20.50;56.90;;;;;;5023853;28;20415;-76
2021/10/20 10:20:55;;;;;;;4.70;2.93;;;20.60;56.60;;;;;;5032624;28;20451;-76
2021/10/20 10:23:27;;;;;;;13.77;3.80;;;20.70;56.20;;;;;;5031226;28;20444;-74
2021/10/20 10:25:59;;;;;;;18.07;4.57;;;20.80;56.10;;;;;;5033632;28;20204;-75
2021/10/20 10:28:30;;;;;;;4.70;3.43;;;21.00;55.80;;;;;;5036006;28;20484;-76
2021/10/20 10:31:08;;;;;;;8.90;3.50;;;21.10;55.70;;;;;;5033114;28;20428;-76
2021/10/20 10:33:40;;;;;;;5.63;3.53;;;21.10;55.60;;;;;;5032837;28;20486;-75
2021/10/20 10:36:16;;;;;;;6.37;3.87;;;21.10;55.70;;;;;;5034951;28;20793;-75
2021/10/20 10:39:07;;;;;;;6.13;3.50;;;21.10;56.00;;;;;;5034522;28;20479;-74
2021/10/20 10:41:36;;;;;;;14.00;4.40;;;21.20;55.80;;;;;;5027847;28;20445;-75
2021/10/20 10:44:08;;;;;;;4.60;3.40;;;21.30;56.00;;;;;;5038183;28;20483;-77
2021/10/20 10:46:35;;;;;;;6.13;3.60;;;21.20;55.80;;;;;;5038097;28;21135;-75
2021/10/20 10:49:21;;;;;;;8.93;3.50;;;21.20;56.00;;;;;;5036000;28;20477;-76
2021/10/20 10:52:28;;;;;;;6.70;3.23;;;21.40;55.30;;;;;;5035375;28;20807;-76
2021/10/20 10:55:04;;;;;;;5.97;3.43;;;21.50;55.00;;;;;;5011956;28;20425;-76
2021/10/20 10:57:36;;;;;;;7.00;3.60;;;21.40;55.20;;;;;;5040818;28;20482;-75
2021/10/20 11:00:07;;;;;;;6.63;3.93;;;21.70;55.30;;;;;;5043547;28;20429;-75
2021/10/20 11:02:46;;;;;;;8.23;4.30;;;22.10;54.50;;;;;;5034325;28;20466;-75
2021/10/20 11:05:13;;;;;;;8.70;3.70;;;22.20;53.70;;;;;;5046082;28;20471;-74
2021/10/20 11:07:43;;;;;;;13.00;3.87;;;22.20;53.70;;;;;;5050025;28;20427;-75
2021/10/20 11:10:10;;;;;;;5.53;3.33;;;21.90;54.40;;;;;;5042803;28;20437;-77
2021/10/20 11:12:36;;;;;;;7.63;3.30;;;21.90;54.80;;;;;;5031647;28;20445;-75
2021/10/20 11:15:02;;;;;;;5.20;3.13;;;21.90;54.90;;;;;;5031263;28;20760;-77
2021/10/20 11:17:32;;;;;;;5.00;3.57;;;21.80;55.00;;;;;;5031684;28;20671;-75
2021/10/20 11:20:02;;;;;;;4.23;3.30;;;21.60;55.60;;;;;;5032596;28;20425;-76
2021/10/20 11:22:28;;;;;;;4.93;3.20;;;21.70;55.40;;;;;;5030302;28;20448;-76
2021/10/20 11:24:54;;;;;;;5.27;3.10;;;21.90;55.00;;;;;;5032196;28;20511;-77
2021/10/20 11:27:24;;;;;;;5.00;3.00;;;22.10;54.80;;;;;;5031875;28;20218;-75
2021/10/20 11:29:52;;;;;;;4.17;2.73;;;22.20;54.10;;;;;;5031988;28;20538;-74
2021/10/20 11:32:20;;;;;;;4.63;3.70;;;22.40;54.00;;;;;;5044424;28;20481;-75
2021/10/20 11:34:46;;;;;;;5.70;2.97;;;22.60;53.40;;;;;;5046869;28;20486;-75
2021/10/20 11:37:14;;;;;;;5.83;2.93;;;22.70;53.30;;;;;;5030844;28;20426;-75
2021/10/20 11:39:41;;;;;;;5.70;3.23;;;22.90;52.90;;;;;;5032918;28;20450;-76
2021/10/20 11:42:12;;;;;;;3.87;2.90;;;23.10;52.40;;;;;;5027494;28;20463;-77
2021/10/20 11:44:39;;;;;;;5.20;3.93;;;23.10;52.20;;;;;;5031821;28;20773;-77
2021/10/20 11:47:20;;;;;;;4.37;2.60;;;23.00;52.50;;;;;;5031255;28;20565;-76
2021/10/20 11:49:51;;;;;;;6.57;3.17;;;23.00;52.80;;;;;;5028412;28;20439;-74
2021/10/20 11:52:19;;;;;;;3.43;2.90;;;23.20;52.10;;;;;;5029723;28;20469;-75
2021/10/20 11:54:45;;;;;;;5.00;3.13;;;23.30;52.10;;;;;;5031541;28;20459;-76
2021/10/20 11:57:14;;;;;;;7.53;3.10;;;23.60;51.70;;;;;;5033202;28;20455;-75
2021/10/20 11:59:40;;;;;;;7.43;3.20;;;23.80;50.90;;;;;;5037348;28;20424;-76
2021/10/20 12:02:08;;;;;;;5.50;3.63;;;24.10;50.20;;;;;;5033545;28;20474;-76
2021/10/20 12:04:34;;;;;;;20.77;4.00;;;24.30;49.90;;;;;;5035017;28;20484;-76
2021/10/20 12:07:04;;;;;;;3.70;2.40;;;24.40;49.90;;;;;;5033442;28;20885;-75
2021/10/20 12:09:32;;;;;;;5.43;2.67;;;24.40;50.20;;;;;;5030807;28;20453;-74
2021/10/20 12:12:00;;;;;;;7.17;3.33;;;24.40;50.10;;;;;;5031462;28;20443;-74
2021/10/20 12:14:55;;;;;;;4.20;3.03;;;24.30;50.30;;;;;;5031632;28;20517;-75
2021/10/20 12:17:21;;;;;;;5.67;3.03;;;24.10;50.90;;;;;;5034123;28;20435;-76
2021/10/20 12:19:46;;;;;;;6.40;2.90;;;24.20;50.70;;;;;;5030729;28;21025;-75
2021/10/20 12:22:14;;;;;;;5.63;3.00;;;23.80;51.40;;;;;;5031615;28;20220;-76
2021/10/20 12:24:45;;;;;;;14.70;5.17;;;23.50;52.40;;;;;;5032850;28;20434;-75
2021/10/20 12:27:12;;;;;;;5.20;2.80;;;23.60;52.90;;;;;;5031458;28;20475;-75
2021/10/20 12:29:47;;;;;;;5.43;3.00;;;23.90;52.00;;;;;;5032084;28;20424;-75
2021/10/20 12:32:25;;;;;;;8.00;3.60;;;23.70;52.10;;;;;;5032914;28;20447;-77
2021/10/20 12:34:57;;;;;;;4.47;3.20;;;23.70;52.40;;;;;;5039773;28;20945;-76
2021/10/20 12:37:34;;;;;;;6.70;3.87;;;23.50;52.60;;;;;;5034916;28;20454;-76
2021/10/20 12:40:14;;;;;;;4.27;3.50;;;23.40;53.20;;;;;;5041053;28;20444;-73
2021/10/20 12:42:52;;;;;;;4.37;3.00;;;23.30;53.40;;;;;;5043442;28;20444;-76
2021/10/20 12:45:21;;;;;;;5.40;3.57;;;23.20;54.10;;;;;;5037420;28;20426;-76